sensor_id;sensor_type;location;lat;lon;timestamp;pressure;altitude;pressure_sealevel;temperature;humidity
12949;BME280;6539;49.476;8.484;2023-12-28T00:00:34;100567.56;;;5.72;95.43
12949;BME280;6539;49.476;8.484;2023-12-28T00:03:20;100557.34;;;5.66;95.69
12949;BME280;6539;49.476;8.484;2023-12-28T00:06:07;100551.88;;;5.62;95.96
12949;BME280;6539;49.476;8.484;2023-12-28T00:08:55;100558.09;;;5.63;95.59
12949;BME280;6539;49.476;8.484;2023-12-28T00:11:43;100557.81;;;5.71;93.31
12949;BME280;6539;49.476;8.484;2023-12-28T00:14:29;100558.31;;;5.80;92.88
12949;BME280;6539;49.476;8.484;2023-12-28T00:17:18;100561.59;;;5.89;89.61
12949;BME280;6539;49.476;8.484;2023-12-28T00:20:07;100565.66;;;6.02;88.62
12949;BME280;6539;49.476;8.484;2023-12-28T00:22:53;100559.13;;;6.10;86.76
12949;BME280;6539;49.476;8.484;2023-12-28T00:25:39;100565.44;;;6.14;85.87
12949;BME280;6539;49.476;8.484;2023-12-28T00:28:25;100574.44;;;6.19;84.94
12949;BME280;6539;49.476;8.484;2023-12-28T00:31:11;100568.59;;;6.20;83.64
12949;BME280;6539;49.476;8.484;2023-12-28T00:33:58;100570.94;;;6.22;83.64
12949;BME280;6539;49.476;8.484;2023-12-28T00:36:44;100577.16;;;6.19;82.66
12949;BME280;6539;49.476;8.484;2023-12-28T00:39:30;100586.47;;;6.18;82.71
12949;BME280;6539;49.476;8.484;2023-12-28T00:42:18;100588.88;;;6.23;81.90
12949;BME280;6539;49.476;8.484;2023-12-28T00:45:09;100592.59;;;6.41;80.06
12949;BME280;6539;49.476;8.484;2023-12-28T00:47:55;100595.53;;;6.58;78.57
12949;BME280;6539;49.476;8.484;2023-12-28T00:50:42;100580.13;;;6.76;75.94
12949;BME280;6539;49.476;8.484;2023-12-28T00:53:28;100577.22;;;6.99;73.83
12949;BME280;6539;49.476;8.484;2023-12-28T00:56:14;100570.72;;;7.14;72.54
12949;BME280;6539;49.476;8.484;2023-12-28T00:59:03;100574.78;;;7.34;70.82
12949;BME280;6539;49.476;8.484;2023-12-28T01:01:49;100565.47;;;7.39;70.26
12949;BME280;6539;49.476;8.484;2023-12-28T01:04:38;100575.22;;;7.40;69.86
12949;BME280;6539;49.476;8.484;2023-12-28T01:07:26;100580.34;;;7.48;69.17
12949;BME280;6539;49.476;8.484;2023-12-28T01:10:15;100594.84;;;7.56;68.31
12949;BME280;6539;49.476;8.484;2023-12-28T01:13:03;100588.66;;;7.62;68.21
12949;BME280;6539;49.476;8.484;2023-12-28T01:15:55;100592.97;;;7.67;67.91
12949;BME280;6539;49.476;8.484;2023-12-28T01:18:41;100589.84;;;7.65;67.36
12949;BME280;6539;49.476;8.484;2023-12-28T01:21:27;100598.88;;;7.76;66.37
12949;BME280;6539;49.476;8.484;2023-12-28T01:24:16;100598.66;;;8.06;64.52
12949;BME280;6539;49.476;8.484;2023-12-28T01:27:05;100595.97;;;8.16;63.80
12949;BME280;6539;49.476;8.484;2023-12-28T01:29:51;100588.25;;;8.25;63.58
12949;BME280;6539;49.476;8.484;2023-12-28T01:32:37;100581.22;;;8.28;63.33
12949;BME280;6539;49.476;8.484;2023-12-28T01:35:23;100585.16;;;8.34;63.04
12949;BME280;6539;49.476;8.484;2023-12-28T01:38:12;100594.56;;;8.47;61.91
12949;BME280;6539;49.476;8.484;2023-12-28T01:40:58;100600.88;;;8.65;61.01
12949;BME280;6539;49.476;8.484;2023-12-28T01:43:44;100602.09;;;8.82;60.19
12949;BME280;6539;49.476;8.484;2023-12-28T01:46:35;100601.72;;;9.08;59.03
12949;BME280;6539;49.476;8.484;2023-12-28T01:49:21;100601.75;;;9.15;58.64
12949;BME280;6539;49.476;8.484;2023-12-28T01:52:08;100607.59;;;9.17;58.82
12949;BME280;6539;49.476;8.484;2023-12-28T01:54:54;100618.59;;;9.31;58.00
12949;BME280;6539;49.476;8.484;2023-12-28T01:57:43;100617.03;;;9.44;57.56
12949;BME280;6539;49.476;8.484;2023-12-28T02:00:31;100611.91;;;9.53;57.00
12949;BME280;6539;49.476;8.484;2023-12-28T02:03:18;100622.09;;;9.67;56.20
12949;BME280;6539;49.476;8.484;2023-12-28T02:06:07;100619.72;;;9.76;56.00
12949;BME280;6539;49.476;8.484;2023-12-28T02:08:55;100600.94;;;9.78;55.82
12949;BME280;6539;49.476;8.484;2023-12-28T02:11:44;100615.00;;;9.87;55.42
12949;BME280;6539;49.476;8.484;2023-12-28T02:14:33;100622.81;;;9.92;55.16
12949;BME280;6539;49.476;8.484;2023-12-28T02:20:50;100618.91;;;10.00;54.42
12949;BME280;6539;49.476;8.484;2023-12-28T02:23:37;100613.81;;;10.02;54.63
12949;BME280;6539;49.476;8.484;2023-12-28T02:26:25;100620.06;;;10.13;54.26
12949;BME280;6539;49.476;8.484;2023-12-28T02:29:11;100616.13;;;10.14;54.16
12949;BME280;6539;49.476;8.484;2023-12-28T02:32:06;100605.91;;;10.25;53.52
12949;BME280;6539;49.476;8.484;2023-12-28T02:35:04;100611.03;;;10.23;53.78
12949;BME280;6539;49.476;8.484;2023-12-28T02:38:01;100609.81;;;10.31;53.84
12949;BME280;6539;49.476;8.484;2023-12-28T02:40:49;100608.63;;;10.36;53.52
12949;BME280;6539;49.476;8.484;2023-12-28T02:43:36;100599.56;;;10.42;52.99
12949;BME280;6539;49.476;8.484;2023-12-28T02:46:24;100610.13;;;10.44;53.30
12949;BME280;6539;49.476;8.484;2023-12-28T02:49:15;100605.81;;;10.46;53.01
12949;BME280;6539;49.476;8.484;2023-12-28T02:52:02;100607.78;;;10.46;53.04
12949;BME280;6539;49.476;8.484;2023-12-28T02:54:48;100610.53;;;10.46;52.82
12949;BME280;6539;49.476;8.484;2023-12-28T02:57:34;100604.28;;;10.42;53.32
12949;BME280;6539;49.476;8.484;2023-12-28T03:00:26;100605.06;;;10.42;53.80
12949;BME280;6539;49.476;8.484;2023-12-28T03:03:17;100620.34;;;10.40;53.90
12949;BME280;6539;49.476;8.484;2023-12-28T03:06:03;100619.53;;;10.46;53.07
12949;BME280;6539;49.476;8.484;2023-12-28T03:08:50;100625.03;;;10.50;52.68
12949;BME280;6539;49.476;8.484;2023-12-28T03:11:38;100621.09;;;10.51;52.89
12949;BME280;6539;49.476;8.484;2023-12-28T03:14:27;100631.28;;;10.54;52.32
12949;BME280;6539;49.476;8.484;2023-12-28T03:17:13;100628.16;;;10.52;52.70
12949;BME280;6539;49.476;8.484;2023-12-28T03:20:03;100632.84;;;10.55;53.00
12949;BME280;6539;49.476;8.484;2023-12-28T03:22:51;100633.63;;;10.55;53.31
12949;BME280;6539;49.476;8.484;2023-12-28T03:25:37;100620.31;;;10.54;53.94
12949;BME280;6539;49.476;8.484;2023-12-28T03:28:26;100624.25;;;10.49;54.55
12949;BME280;6539;49.476;8.484;2023-12-28T03:31:12;100629.75;;;10.49;55.27
12949;BME280;6539;49.476;8.484;2023-12-28T03:33:59;100623.47;;;10.42;56.46
12949;BME280;6539;49.476;8.484;2023-12-28T03:36:45;100620.34;;;10.40;57.84
12949;BME280;6539;49.476;8.484;2023-12-28T03:39:31;100609.41;;;10.36;59.81
12949;BME280;6539;49.476;8.484;2023-12-28T03:42:17;100614.50;;;10.34;63.19
12949;BME280;6539;49.476;8.484;2023-12-28T03:45:04;100618.41;;;10.33;65.32
12949;BME280;6539;49.476;8.484;2023-12-28T03:47:50;100621.16;;;10.33;66.63
12949;BME280;6539;49.476;8.484;2023-12-28T03:50:38;100612.56;;;10.31;66.66
12949;BME280;6539;49.476;8.484;2023-12-28T03:53:24;100605.50;;;10.30;67.23
12949;BME280;6539;49.476;8.484;2023-12-28T03:56:26;100600.81;;;10.27;67.44
12949;BME280;6539;49.476;8.484;2023-12-28T03:59:14;100613.34;;;10.25;67.07
12949;BME280;6539;49.476;8.484;2023-12-28T04:02:03;100631.00;;;10.20;65.94
12949;BME280;6539;49.476;8.484;2023-12-28T04:04:52;100634.56;;;10.14;64.14
12949;BME280;6539;49.476;8.484;2023-12-28T04:07:40;100643.94;;;10.06;63.55
12949;BME280;6539;49.476;8.484;2023-12-28T04:10:31;100636.16;;;10.01;64.24
12949;BME280;6539;49.476;8.484;2023-12-28T04:13:18;100647.09;;;9.97;65.73
12949;BME280;6539;49.476;8.484;2023-12-28T04:16:04;100643.19;;;9.98;68.98
12949;BME280;6539;49.476;8.484;2023-12-28T04:18:50;100638.47;;;9.98;72.24
12949;BME280;6539;49.476;8.484;2023-12-28T04:21:39;100630.66;;;9.97;74.91
12949;BME280;6539;49.476;8.484;2023-12-28T04:24:28;100640.84;;;9.96;76.90
12949;BME280;6539;49.476;8.484;2023-12-28T04:27:14;100663.16;;;9.95;78.04
12949;BME280;6539;49.476;8.484;2023-12-28T04:30:00;100661.22;;;9.92;79.27
12949;BME280;6539;49.476;8.484;2023-12-28T04:32:51;100666.31;;;9.93;79.50
12949;BME280;6539;49.476;8.484;2023-12-28T04:35:37;100658.06;;;9.90;79.80
12949;BME280;6539;49.476;8.484;2023-12-28T04:38:23;100653.41;;;9.87;80.21
12949;BME280;6539;49.476;8.484;2023-12-28T04:41:10;100658.09;;;9.86;80.39
12949;BME280;6539;49.476;8.484;2023-12-28T04:43:58;100649.09;;;9.82;78.97
12949;BME280;6539;49.476;8.484;2023-12-28T04:46:52;100645.59;;;9.78;79.34
12949;BME280;6539;49.476;8.484;2023-12-28T04:49:40;100648.31;;;9.78;80.50
12949;BME280;6539;49.476;8.484;2023-12-28T04:52:27;100657.34;;;9.79;81.73
12949;BME280;6539;49.476;8.484;2023-12-28T04:55:13;100661.63;;;9.80;81.67
12949;BME280;6539;49.476;8.484;2023-12-28T04:58:00;100663.56;;;9.79;83.02
12949;BME280;6539;49.476;8.484;2023-12-28T05:00:46;100659.66;;;9.77;84.99
12949;BME280;6539;49.476;8.484;2023-12-28T05:03:32;100663.22;;;9.74;88.38
12949;BME280;6539;49.476;8.484;2023-12-28T05:06:18;100662.78;;;9.68;90.40
12949;BME280;6539;49.476;8.484;2023-12-28T05:09:09;100679.66;;;9.67;91.75
12949;BME280;6539;49.476;8.484;2023-12-28T05:11:56;100666.34;;;9.65;93.51
12949;BME280;6539;49.476;8.484;2023-12-28T05:14:42;100664.38;;;9.62;94.13
12949;BME280;6539;49.476;8.484;2023-12-28T05:17:28;100678.09;;;9.59;95.96
12949;BME280;6539;49.476;8.484;2023-12-28T05:20:14;100674.56;;;9.58;97.13
12949;BME280;6539;49.476;8.484;2023-12-28T05:23:00;100679.25;;;9.58;97.83
12949;BME280;6539;49.476;8.484;2023-12-28T05:25:46;100678.84;;;9.56;99.38
12949;BME280;6539;49.476;8.484;2023-12-28T05:28:35;100679.66;;;9.53;100.00
12949;BME280;6539;49.476;8.484;2023-12-28T05:31:26;100673.78;;;9.58;100.00
12949;BME280;6539;49.476;8.484;2023-12-28T05:34:13;100671.81;;;9.51;100.00
12949;BME280;6539;49.476;8.484;2023-12-28T05:36:59;100668.69;;;9.49;100.00
12949;BME280;6539;49.476;8.484;2023-12-28T05:39:47;100678.47;;;9.47;100.00
12949;BME280;6539;49.476;8.484;2023-12-28T05:42:33;100685.53;;;9.44;100.00
12949;BME280;6539;49.476;8.484;2023-12-28T05:45:19;100680.81;;;9.38;100.00
12949;BME280;6539;49.476;8.484;2023-12-28T05:48:08;100678.47;;;9.33;100.00
12949;BME280;6539;49.476;8.484;2023-12-28T05:50:57;100675.31;;;9.31;100.00
12949;BME280;6539;49.476;8.484;2023-12-28T05:53:44;100676.09;;;9.28;100.00
12949;BME280;6539;49.476;8.484;2023-12-28T05:56:35;100679.22;;;9.26;100.00
12949;BME280;6539;49.476;8.484;2023-12-28T05:59:23;100668.28;;;9.23;100.00
12949;BME280;6539;49.476;8.484;2023-12-28T06:02:14;100666.31;;;9.27;100.00
12949;BME280;6539;49.476;8.484;2023-12-28T06:05:00;100692.16;;;9.29;100.00
12949;BME280;6539;49.476;8.484;2023-12-28T06:07:46;100695.28;;;9.31;100.00
12949;BME280;6539;49.476;8.484;2023-12-28T06:10:32;100693.72;;;9.34;100.00
12949;BME280;6539;49.476;8.484;2023-12-28T06:13:18;100701.94;;;9.37;100.00
12949;BME280;6539;49.476;8.484;2023-12-28T06:16:07;100703.53;;;9.42;100.00
12949;BME280;6539;49.476;8.484;2023-12-28T06:18:53;100708.22;;;9.41;100.00
12949;BME280;6539;49.476;8.484;2023-12-28T06:21:39;100707.06;;;9.42;100.00
12949;BME280;6539;49.476;8.484;2023-12-28T06:24:27;100707.41;;;9.41;100.00
12949;BME280;6539;49.476;8.484;2023-12-28T06:27:16;100712.94;;;9.44;100.00
12949;BME280;6539;49.476;8.484;2023-12-28T06:30:04;100722.69;;;9.45;100.00
12949;BME280;6539;49.476;8.484;2023-12-28T06:32:55;100720.75;;;9.46;100.00
12949;BME280;6539;49.476;8.484;2023-12-28T06:35:41;100720.75;;;9.46;100.00
12949;BME280;6539;49.476;8.484;2023-12-28T06:38:27;100726.22;;;9.46;100.00
12949;BME280;6539;49.476;8.484;2023-12-28T06:41:16;100729.75;;;9.46;100.00
12949;BME280;6539;49.476;8.484;2023-12-28T06:44:04;100728.97;;;9.46;100.00
12949;BME280;6539;49.476;8.484;2023-12-28T06:46:53;100730.53;;;9.47;100.00
12949;BME280;6539;49.476;8.484;2023-12-28T06:49:39;100723.88;;;9.44;100.00
12949;BME280;6539;49.476;8.484;2023-12-28T06:52:27;100720.34;;;9.44;100.00
12949;BME280;6539;49.476;8.484;2023-12-28T06:55:13;100717.22;;;9.42;100.00
12949;BME280;6539;49.476;8.484;2023-12-28T06:58:02;100706.25;;;9.42;100.00
12949;BME280;6539;49.476;8.484;2023-12-28T07:00:49;100701.94;;;9.41;100.00
12949;BME280;6539;49.476;8.484;2023-12-28T07:03:35;100709.41;;;9.40;100.00
12949;BME280;6539;49.476;8.484;2023-12-28T07:06:24;100715.66;;;9.37;100.00
12949;BME280;6539;49.476;8.484;2023-12-28T07:09:10;100710.16;;;9.37;100.00
12949;BME280;6539;49.476;8.484;2023-12-28T07:11:56;100721.53;;;9.39;100.00
12949;BME280;6539;49.476;8.484;2023-12-28T07:14:42;100718.38;;;9.41;100.00
12949;BME280;6539;49.476;8.484;2023-12-28T07:17:28;100726.22;;;9.39;100.00
12949;BME280;6539;49.476;8.484;2023-12-28T07:20:14;100725.41;;;9.38;100.00
12949;BME280;6539;49.476;8.484;2023-12-28T07:23:02;100724.25;;;9.39;100.00
12949;BME280;6539;49.476;8.484;2023-12-28T07:25:49;100743.03;;;9.41;100.00
12949;BME280;6539;49.476;8.484;2023-12-28T07:28:37;100725.84;;;9.40;100.00
12949;BME280;6539;49.476;8.484;2023-12-28T07:31:28;100738.75;;;9.43;100.00
12949;BME280;6539;49.476;8.484;2023-12-28T07:34:15;100743.44;;;9.43;100.00
12949;BME280;6539;49.476;8.484;2023-12-28T07:37:01;100755.19;;;9.47;100.00
12949;BME280;6539;49.476;8.484;2023-12-28T07:39:50;100757.56;;;9.48;100.00
12949;BME280;6539;49.476;8.484;2023-12-28T07:42:36;100766.97;;;9.51;100.00
12949;BME280;6539;49.476;8.484;2023-12-28T07:45:22;100760.69;;;9.54;100.00
12949;BME280;6539;49.476;8.484;2023-12-28T07:48:12;100751.66;;;9.53;100.00
12949;BME280;6539;49.476;8.484;2023-12-28T07:50:58;100756.78;;;9.55;100.00
12949;BME280;6539;49.476;8.484;2023-12-28T07:53:47;100748.16;;;9.56;100.00
12949;BME280;6539;49.476;8.484;2023-12-28T07:56:33;100759.91;;;9.57;100.00
12949;BME280;6539;49.476;8.484;2023-12-28T07:59:21;100754.03;;;9.58;100.00
12949;BME280;6539;49.476;8.484;2023-12-28T08:02:07;100767.34;;;9.60;100.00
12949;BME280;6539;49.476;8.484;2023-12-28T08:04:54;100762.66;;;9.60;100.00
12949;BME280;6539;49.476;8.484;2023-12-28T08:07:40;100756.00;;;9.61;100.00
12949;BME280;6539;49.476;8.484;2023-12-28T08:10:26;100766.19;;;9.61;100.00
12949;BME280;6539;49.476;8.484;2023-12-28T08:13:12;100776.38;;;9.64;100.00
12949;BME280;6539;49.476;8.484;2023-12-28T08:16:01;100774.81;;;9.63;100.00
12949;BME280;6539;49.476;8.484;2023-12-28T08:18:51;100783.03;;;9.63;100.00
12949;BME280;6539;49.476;8.484;2023-12-28T08:21:37;100781.47;;;9.65;100.00
12949;BME280;6539;49.476;8.484;2023-12-28T08:24:23;100768.56;;;9.66;100.00
12949;BME280;6539;49.476;8.484;2023-12-28T08:27:09;100763.06;;;9.66;100.00
12949;BME280;6539;49.476;8.484;2023-12-28T08:29:57;100768.94;;;9.68;100.00
12949;BME280;6539;49.476;8.484;2023-12-28T08:32:45;100764.22;;;9.68;100.00
12949;BME280;6539;49.476;8.484;2023-12-28T08:35:34;100767.75;;;9.69;100.00
12949;BME280;6539;49.476;8.484;2023-12-28T08:38:20;100772.88;;;9.70;100.00
12949;BME280;6539;49.476;8.484;2023-12-28T08:41:06;100773.66;;;9.78;100.00
12949;BME280;6539;49.476;8.484;2023-12-28T08:43:54;100766.97;;;9.75;100.00
12949;BME280;6539;49.476;8.484;2023-12-28T08:46:40;100772.47;;;9.79;100.00
12949;BME280;6539;49.476;8.484;2023-12-28T08:49:29;100768.16;;;9.78;100.00
12949;BME280;6539;49.476;8.484;2023-12-28T08:52:15;100777.16;;;9.82;100.00
12949;BME280;6539;49.476;8.484;2023-12-28T08:55:01;100782.25;;;9.80;100.00
12949;BME280;6539;49.476;8.484;2023-12-28T08:57:50;100778.75;;;9.83;100.00
12949;BME280;6539;49.476;8.484;2023-12-28T09:00:36;100802.25;;;9.84;100.00
12949;BME280;6539;49.476;8.484;2023-12-28T09:03:22;100792.47;;;9.83;100.00
12949;BME280;6539;49.476;8.484;2023-12-28T09:06:08;100794.00;;;9.84;100.00
12949;BME280;6539;49.476;8.484;2023-12-28T09:08:54;100789.31;;;9.84;100.00
12949;BME280;6539;49.476;8.484;2023-12-28T09:11:44;100787.75;;;9.87;100.00
12949;BME280;6539;49.476;8.484;2023-12-28T09:14:30;100794.03;;;9.87;100.00
12949;BME280;6539;49.476;8.484;2023-12-28T09:17:16;100782.69;;;9.85;100.00
12949;BME280;6539;49.476;8.484;2023-12-28T09:20:02;100792.06;;;9.88;100.00
12949;BME280;6539;49.476;8.484;2023-12-28T09:22:49;100801.88;;;9.89;100.00
12949;BME280;6539;49.476;8.484;2023-12-28T09:25:40;100788.16;;;9.89;100.00
12949;BME280;6539;49.476;8.484;2023-12-28T09:28:26;100794.03;;;9.91;100.00
12949;BME280;6539;49.476;8.484;2023-12-28T09:31:12;100802.25;;;9.91;100.00
12949;BME280;6539;49.476;8.484;2023-12-28T09:34:01;100797.94;;;9.93;100.00
12949;BME280;6539;49.476;8.484;2023-12-28T09:36:51;100805.38;;;9.93;100.00
12949;BME280;6539;49.476;8.484;2023-12-28T09:39:37;100820.25;;;9.92;100.00
12949;BME280;6539;49.476;8.484;2023-12-28T09:42:29;100817.91;;;9.90;100.00
12949;BME280;6539;49.476;8.484;2023-12-28T09:45:19;100805.38;;;9.93;100.00
12949;BME280;6539;49.476;8.484;2023-12-28T09:48:09;100815.56;;;9.92;100.00
12949;BME280;6539;49.476;8.484;2023-12-28T09:50:55;100807.75;;;9.91;100.00
12949;BME280;6539;49.476;8.484;2023-12-28T09:53:47;100804.22;;;9.87;100.00
12949;BME280;6539;49.476;8.484;2023-12-28T09:56:34;100809.69;;;9.87;100.00
12949;BME280;6539;49.476;8.484;2023-12-28T09:59:21;100806.97;;;9.87;100.00
12949;BME280;6539;49.476;8.484;2023-12-28T10:02:09;100799.13;;;9.85;100.00
12949;BME280;6539;49.476;8.484;2023-12-28T10:04:56;100801.88;;;9.85;100.00
12949;BME280;6539;49.476;8.484;2023-12-28T10:07:44;100809.31;;;9.85;100.00
12949;BME280;6539;49.476;8.484;2023-12-28T10:10:30;100797.94;;;9.83;100.00
12949;BME280;6539;49.476;8.484;2023-12-28T10:13:17;100789.72;;;9.83;100.00
12949;BME280;6539;49.476;8.484;2023-12-28T10:16:03;100785.78;;;9.84;100.00
12949;BME280;6539;49.476;8.484;2023-12-28T10:18:51;100789.72;;;9.83;100.00
12949;BME280;6539;49.476;8.484;2023-12-28T10:21:44;100777.16;;;9.82;100.00
12949;BME280;6539;49.476;8.484;2023-12-28T10:24:30;100777.94;;;9.86;100.00
12949;BME280;6539;49.476;8.484;2023-12-28T10:27:16;100780.31;;;9.91;100.00
12949;BME280;6539;49.476;8.484;2023-12-28T10:30:03;100772.88;;;9.95;100.00
12949;BME280;6539;49.476;8.484;2023-12-28T10:32:51;100785.03;;;9.97;100.00
12949;BME280;6539;49.476;8.484;2023-12-28T10:35:38;100784.25;;;10.04;100.00
12949;BME280;6539;49.476;8.484;2023-12-28T10:38:28;100779.94;;;10.07;100.00
12949;BME280;6539;49.476;8.484;2023-12-28T10:41:19;100774.84;;;10.12;100.00
12949;BME280;6539;49.476;8.484;2023-12-28T10:44:07;100777.22;;;10.17;100.00
12949;BME280;6539;49.476;8.484;2023-12-28T10:47:01;100776.03;;;10.22;100.00
12949;BME280;6539;49.476;8.484;2023-12-28T10:49:50;100782.72;;;10.24;100.00
12949;BME280;6539;49.476;8.484;2023-12-28T10:52:43;100773.69;;;10.31;100.00
12949;BME280;6539;49.476;8.484;2023-12-28T10:56:28;100777.97;;;10.32;100.00
12949;BME280;6539;49.476;8.484;2023-12-28T10:59:19;100773.28;;;10.39;100.00
12949;BME280;6539;49.476;8.484;2023-12-28T11:02:09;100785.00;;;10.50;100.00
12949;BME280;6539;49.476;8.484;2023-12-28T11:04:56;100785.41;;;10.45;100.00
12949;BME280;6539;49.476;8.484;2023-12-28T11:07:44;100781.88;;;10.48;100.00
12949;BME280;6539;49.476;8.484;2023-12-28T11:10:33;100779.13;;;10.45;100.00
12949;BME280;6539;49.476;8.484;2023-12-28T11:13:21;100765.41;;;10.45;100.00
12949;BME280;6539;49.476;8.484;2023-12-28T11:16:08;100764.66;;;10.41;100.00
12949;BME280;6539;49.476;8.484;2023-12-28T11:19:00;100759.94;;;10.34;100.00
12949;BME280;6539;49.476;8.484;2023-12-28T11:21:53;100750.16;;;10.37;100.00
12949;BME280;6539;49.476;8.484;2023-12-28T11:24:42;100750.53;;;10.32;100.00
12949;BME280;6539;49.476;8.484;2023-12-28T11:27:35;100740.34;;;10.29;100.00
12949;BME280;6539;49.476;8.484;2023-12-28T11:30:26;100749.75;;;10.28;100.00
12949;BME280;6539;49.476;8.484;2023-12-28T11:33:13;100756.84;;;10.22;100.00
12949;BME280;6539;49.476;8.484;2023-12-28T11:35:59;100753.69;;;10.16;100.00
12949;BME280;6539;49.476;8.484;2023-12-28T11:38:46;100752.50;;;10.10;100.00
12949;BME280;6539;49.476;8.484;2023-12-28T11:41:38;100747.78;;;10.07;100.00
12949;BME280;6539;49.476;8.484;2023-12-28T11:44:27;100740.75;;;10.06;100.00
12949;BME280;6539;49.476;8.484;2023-12-28T11:47:20;100732.91;;;10.05;100.00
12949;BME280;6539;49.476;8.484;2023-12-28T11:50:10;100730.94;;;10.02;100.00
12949;BME280;6539;49.476;8.484;2023-12-28T11:52:59;100725.47;;;10.02;100.00
12949;BME280;6539;49.476;8.484;2023-12-28T11:55:45;100717.63;;;10.00;100.00
12949;BME280;6539;49.476;8.484;2023-12-28T11:58:31;100715.28;;;9.95;100.00
12949;BME280;6539;49.476;8.484;2023-12-28T12:01:21;100714.50;;;9.91;100.00
12949;BME280;6539;49.476;8.484;2023-12-28T12:04:10;100711.75;;;9.91;100.00
12949;BME280;6539;49.476;8.484;2023-12-28T12:06:56;100718.03;;;9.81;100.00
12949;BME280;6539;49.476;8.484;2023-12-28T12:09:46;100712.16;;;9.75;100.00
12949;BME280;6539;49.476;8.484;2023-12-28T12:12:32;100722.31;;;9.64;100.00
12949;BME280;6539;49.476;8.484;2023-12-28T12:15:18;100714.09;;;9.50;100.00
12949;BME280;6539;49.476;8.484;2023-12-28T12:18:04;100716.84;;;9.40;100.00
12949;BME280;6539;49.476;8.484;2023-12-28T12:20:53;100711.34;;;9.29;100.00
12949;BME280;6539;49.476;8.484;2023-12-28T12:23:40;100712.47;;;9.17;100.00
12949;BME280;6539;49.476;8.484;2023-12-28T12:26:26;100716.38;;;9.09;100.00
12949;BME280;6539;49.476;8.484;2023-12-28T12:29:21;100724.16;;;9.04;100.00
12949;BME280;6539;49.476;8.484;2023-12-28T12:32:10;100716.75;;;9.01;100.00
12949;BME280;6539;49.476;8.484;2023-12-28T12:34:59;100699.53;;;9.00;100.00
12949;BME280;6539;49.476;8.484;2023-12-28T12:37:45;100694.03;;;9.00;100.00
12949;BME280;6539;49.476;8.484;2023-12-28T12:40:35;100710.06;;;8.98;100.00
12949;BME280;6539;49.476;8.484;2023-12-28T12:43:21;100702.63;;;8.95;100.00
12949;BME280;6539;49.476;8.484;2023-12-28T12:46:08;100694.00;;;8.93;100.00
12949;BME280;6539;49.476;8.484;2023-12-28T12:49:00;100701.06;;;8.94;100.00
12949;BME280;6539;49.476;8.484;2023-12-28T12:51:49;100690.91;;;8.95;100.00
12949;BME280;6539;49.476;8.484;2023-12-28T12:54:39;100698.69;;;8.93;100.00
12949;BME280;6539;49.476;8.484;2023-12-28T12:57:29;100694.00;;;8.90;100.00
12949;BME280;6539;49.476;8.484;2023-12-28T13:00:16;100692.44;;;8.85;100.00
12949;BME280;6539;49.476;8.484;2023-12-28T13:03:11;100699.47;;;8.83;100.00
12949;BME280;6539;49.476;8.484;2023-12-28T13:05:57;100695.53;;;8.77;100.00
12949;BME280;6539;49.476;8.484;2023-12-28T13:08:43;100694.75;;;8.76;100.00
12949;BME280;6539;49.476;8.484;2023-12-28T13:11:35;100683.78;;;8.76;100.00
12949;BME280;6539;49.476;8.484;2023-12-28T13:14:22;100674.03;;;8.79;100.00
12949;BME280;6539;49.476;8.484;2023-12-28T13:17:11;100663.47;;;8.81;100.00
12949;BME280;6539;49.476;8.484;2023-12-28T13:19:59;100668.56;;;8.82;100.00
12949;BME280;6539;49.476;8.484;2023-12-28T13:22:45;100679.13;;;8.87;100.00
12949;BME280;6539;49.476;8.484;2023-12-28T13:25:34;100667.03;;;8.88;100.00
12949;BME280;6539;49.476;8.484;2023-12-28T13:28:23;100667.81;;;8.92;100.00
12949;BME280;6539;49.476;8.484;2023-12-28T13:31:09;100672.13;;;8.93;100.00
12949;BME280;6539;49.476;8.484;2023-12-28T13:33:58;100662.75;;;8.98;100.00
12949;BME280;6539;49.476;8.484;2023-12-28T13:36:44;100657.25;;;8.98;100.00
12949;BME280;6539;49.476;8.484;2023-12-28T13:39:30;100660.00;;;8.98;100.00
12949;BME280;6539;49.476;8.484;2023-12-28T13:42:24;100659.59;;;8.99;100.00
12949;BME280;6539;49.476;8.484;2023-12-28T13:45:12;100663.91;;;9.00;100.00
12949;BME280;6539;49.476;8.484;2023-12-28T13:47:58;100663.16;;;9.03;100.00
12949;BME280;6539;49.476;8.484;2023-12-28T13:50:47;100653.38;;;9.02;100.00
12949;BME280;6539;49.476;8.484;2023-12-28T13:53:33;100660.41;;;9.07;100.00
12949;BME280;6539;49.476;8.484;2023-12-28T13:56:28;100653.38;;;9.09;100.00
12949;BME280;6539;49.476;8.484;2023-12-28T13:59:14;100658.06;;;9.12;100.00
12949;BME280;6539;49.476;8.484;2023-12-28T14:02:00;100659.25;;;9.15;100.00
12949;BME280;6539;49.476;8.484;2023-12-28T14:04:46;100653.41;;;9.20;100.00
12949;BME280;6539;49.476;8.484;2023-12-28T14:07:33;100650.28;;;9.25;100.00
12949;BME280;6539;49.476;8.484;2023-12-28T14:10:21;100656.53;;;9.29;100.00
12949;BME280;6539;49.476;8.484;2023-12-28T14:13:09;100646.38;;;9.33;100.00
12949;BME280;6539;49.476;8.484;2023-12-28T14:15:55;100660.84;;;9.37;100.00
12949;BME280;6539;49.476;8.484;2023-12-28T14:18:44;100660.06;;;9.44;100.00
12949;BME280;6539;49.476;8.484;2023-12-28T14:21:38;100670.63;;;9.45;100.00
12949;BME280;6539;49.476;8.484;2023-12-28T14:24:27;100656.53;;;9.47;100.00
12949;BME280;6539;49.476;8.484;2023-12-28T14:27:16;100668.69;;;9.46;100.00
12949;BME280;6539;49.476;8.484;2023-12-28T14:30:03;100656.53;;;9.47;100.00
12949;BME280;6539;49.476;8.484;2023-12-28T14:32:54;100663.19;;;9.49;100.00
12949;BME280;6539;49.476;8.484;2023-12-28T14:35:40;100660.47;;;9.49;100.00
12949;BME280;6539;49.476;8.484;2023-12-28T14:38:27;100662.03;;;9.50;100.00
12949;BME280;6539;49.476;8.484;2023-12-28T14:41:16;100657.34;;;9.51;100.00
12949;BME280;6539;49.476;8.484;2023-12-28T14:44:02;100652.25;;;9.53;100.00
12949;BME280;6539;49.476;8.484;2023-12-28T14:46:51;100654.19;;;9.56;100.00
12949;BME280;6539;49.476;8.484;2023-12-28T14:49:41;100651.06;;;9.54;100.00
12949;BME280;6539;49.476;8.484;2023-12-28T14:52:28;100646.38;;;9.54;100.00
12949;BME280;6539;49.476;8.484;2023-12-28T14:55:15;100650.28;;;9.57;100.00